sensor_id;sensor_type;location;lat;lon;timestamp;P1;durP1;ratioP1;P2;durP2;ratioP2
2035;SDS011;23642;42.658;23.350;2023-09-12T00:02:11;105.30;;;99.20;;
2035;SDS011;23642;42.658;23.350;2023-09-12T00:04:37;104.07;;;97.67;;
2035;SDS011;23642;42.658;23.350;2023-09-12T00:07:04;103.97;;;97.77;;
2035;SDS011;23642;42.658;23.350;2023-09-12T00:09:32;104.60;;;98.50;;
2035;SDS011;23642;42.658;23.350;2023-09-12T00:11:59;106.33;;;100.00;;
2035;SDS011;23642;42.658;23.350;2023-09-12T00:14:26;105.27;;;98.97;;
2035;SDS011;23642;42.658;23.350;2023-09-12T00:16:53;107.30;;;101.10;;
2035;SDS011;23642;42.658;23.350;2023-09-12T00:19:20;105.80;;;99.50;;
2035;SDS011;23642;42.658;23.350;2023-09-12T00:21:47;106.40;;;100.20;;
2035;SDS011;23642;42.658;23.350;2023-09-12T00:24:14;103.77;;;97.67;;
2035;SDS011;23642;42.658;23.350;2023-09-12T00:26:43;101.80;;;95.70;;
2035;SDS011;23642;42.658;23.350;2023-09-12T00:29:10;109.07;;;102.30;;
2035;SDS011;23642;42.658;23.350;2023-09-12T00:31:36;104.33;;;98.13;;
2035;SDS011;23642;42.658;23.350;2023-09-12T00:34:05;108.07;;;101.60;;
2035;SDS011;23642;42.658;23.350;2023-09-12T00:36:32;105.30;;;99.00;;
2035;SDS011;23642;42.658;23.350;2023-09-12T00:38:59;105.33;;;99.13;;
2035;SDS011;23642;42.658;23.350;2023-09-12T00:41:25;105.63;;;99.43;;
2035;SDS011;23642;42.658;23.350;2023-09-12T00:43:54;106.33;;;100.03;;
2035;SDS011;23642;42.658;23.350;2023-09-12T00:46:20;108.27;;;100.73;;
2035;SDS011;23642;42.658;23.350;2023-09-12T00:48:50;106.23;;;100.03;;
2035;SDS011;23642;42.658;23.350;2023-09-12T00:51:19;105.83;;;99.60;;
2035;SDS011;23642;42.658;23.350;2023-09-12T00:53:50;106.87;;;100.67;;
2035;SDS011;23642;42.658;23.350;2023-09-12T00:56:19;104.13;;;97.90;;
2035;SDS011;23642;42.658;23.350;2023-09-12T00:58:46;105.23;;;98.87;;
2035;SDS011;23642;42.658;23.350;2023-09-12T01:01:17;101.70;;;95.70;;
2035;SDS011;23642;42.658;23.350;2023-09-12T01:03:44;104.80;;;98.17;;
2035;SDS011;23642;42.658;23.350;2023-09-12T01:06:11;105.10;;;98.90;;
2035;SDS011;23642;42.658;23.350;2023-09-12T01:08:41;104.33;;;98.23;;
2035;SDS011;23642;42.658;23.350;2023-09-12T01:11:07;104.57;;;98.37;;
2035;SDS011;23642;42.658;23.350;2023-09-12T01:13:35;102.50;;;96.40;;
2035;SDS011;23642;42.658;23.350;2023-09-12T01:16:01;105.17;;;98.80;;
2035;SDS011;23642;42.658;23.350;2023-09-12T01:18:30;106.60;;;100.30;;
2035;SDS011;23642;42.658;23.350;2023-09-12T01:21:04;104.97;;;98.87;;
2035;SDS011;23642;42.658;23.350;2023-09-12T01:23:47;103.13;;;96.80;;
2035;SDS011;23642;42.658;23.350;2023-09-12T01:26:36;106.77;;;100.47;;
2035;SDS011;23642;42.658;23.350;2023-09-12T01:29:14;106.30;;;100.00;;
2035;SDS011;23642;42.658;23.350;2023-09-12T01:31:42;106.63;;;100.33;;
2035;SDS011;23642;42.658;23.350;2023-09-12T01:34:11;106.20;;;99.43;;
2035;SDS011;23642;42.658;23.350;2023-09-12T01:36:40;106.90;;;100.60;;
2035;SDS011;23642;42.658;23.350;2023-09-12T01:39:07;106.53;;;99.90;;
2035;SDS011;23642;42.658;23.350;2023-09-12T01:41:35;104.47;;;98.10;;
2035;SDS011;23642;42.658;23.350;2023-09-12T01:44:06;109.47;;;102.90;;
2035;SDS011;23642;42.658;23.350;2023-09-12T01:46:37;108.47;;;102.00;;
2035;SDS011;23642;42.658;23.350;2023-09-12T01:49:04;107.40;;;100.87;;
2035;SDS011;23642;42.658;23.350;2023-09-12T01:51:33;106.17;;;99.87;;
2035;SDS011;23642;42.658;23.350;2023-09-12T01:54:01;103.40;;;97.10;;
2035;SDS011;23642;42.658;23.350;2023-09-12T01:56:30;106.90;;;100.50;;
2035;SDS011;23642;42.658;23.350;2023-09-12T01:58:58;107.20;;;100.30;;
2035;SDS011;23642;42.658;23.350;2023-09-12T02:01:25;104.93;;;98.50;;
2035;SDS011;23642;42.658;23.350;2023-09-12T02:03:54;109.57;;;102.97;;
2035;SDS011;23642;42.658;23.350;2023-09-12T02:06:21;109.63;;;102.80;;
2035;SDS011;23642;42.658;23.350;2023-09-12T02:08:49;107.40;;;100.90;;
2035;SDS011;23642;42.658;23.350;2023-09-12T02:11:16;108.57;;;101.97;;
2035;SDS011;23642;42.658;23.350;2023-09-12T02:13:43;109.60;;;102.80;;
2035;SDS011;23642;42.658;23.350;2023-09-12T02:16:10;106.43;;;99.73;;
2035;SDS011;23642;42.658;23.350;2023-09-12T02:18:37;104.47;;;97.97;;
2035;SDS011;23642;42.658;23.350;2023-09-12T02:21:05;106.03;;;99.70;;
2035;SDS011;23642;42.658;23.350;2023-09-12T02:23:31;108.50;;;101.33;;
2035;SDS011;23642;42.658;23.350;2023-09-12T02:25:58;108.67;;;101.83;;
2035;SDS011;23642;42.658;23.350;2023-09-12T02:28:25;104.80;;;98.40;;
2035;SDS011;23642;42.658;23.350;2023-09-12T02:30:52;105.50;;;98.90;;
2035;SDS011;23642;42.658;23.350;2023-09-12T02:33:18;106.97;;;100.00;;
2035;SDS011;23642;42.658;23.350;2023-09-12T02:35:46;106.07;;;99.53;;
2035;SDS011;23642;42.658;23.350;2023-09-12T02:38:14;109.20;;;102.27;;
2035;SDS011;23642;42.658;23.350;2023-09-12T02:40:41;105.93;;;99.33;;
2035;SDS011;23642;42.658;23.350;2023-09-12T02:43:09;106.80;;;100.13;;
2035;SDS011;23642;42.658;23.350;2023-09-12T02:45:36;104.87;;;97.97;;
2035;SDS011;23642;42.658;23.350;2023-09-12T02:48:03;106.10;;;98.87;;
2035;SDS011;23642;42.658;23.350;2023-09-12T02:50:30;103.30;;;96.83;;
2035;SDS011;23642;42.658;23.350;2023-09-12T02:52:57;100.17;;;93.63;;
2035;SDS011;23642;42.658;23.350;2023-09-12T02:55:27;102.97;;;96.10;;
2035;SDS011;23642;42.658;23.350;2023-09-12T02:57:54;101.93;;;95.33;;
2035;SDS011;23642;42.658;23.350;2023-09-12T03:00:21;102.90;;;96.50;;
2035;SDS011;23642;42.658;23.350;2023-09-12T03:02:48;101.47;;;94.97;;
2035;SDS011;23642;42.658;23.350;2023-09-12T03:05:15;99.83;;;93.33;;
2035;SDS011;23642;42.658;23.350;2023-09-12T03:07:42;101.50;;;94.67;;
2035;SDS011;23642;42.658;23.350;2023-09-12T03:10:10;101.40;;;94.97;;
2035;SDS011;23642;42.658;23.350;2023-09-12T03:12:39;102.80;;;95.70;;
2035;SDS011;23642;42.658;23.350;2023-09-12T03:15:06;104.27;;;97.47;;
2035;SDS011;23642;42.658;23.350;2023-09-12T03:17:34;96.50;;;90.10;;
2035;SDS011;23642;42.658;23.350;2023-09-12T03:20:00;99.43;;;92.73;;
2035;SDS011;23642;42.658;23.350;2023-09-12T03:22:31;101.40;;;94.83;;
2035;SDS011;23642;42.658;23.350;2023-09-12T03:25:02;96.90;;;90.40;;
2035;SDS011;23642;42.658;23.350;2023-09-12T03:27:31;100.33;;;93.53;;
2035;SDS011;23642;42.658;23.350;2023-09-12T03:30:12;97.80;;;91.07;;
2035;SDS011;23642;42.658;23.350;2023-09-12T03:32:39;100.50;;;94.00;;
2035;SDS011;23642;42.658;23.350;2023-09-12T03:35:06;97.20;;;90.80;;
2035;SDS011;23642;42.658;23.350;2023-09-12T03:37:33;96.10;;;89.50;;
2035;SDS011;23642;42.658;23.350;2023-09-12T03:40:06;99.40;;;92.70;;
2035;SDS011;23642;42.658;23.350;2023-09-12T03:42:33;96.40;;;89.53;;
2035;SDS011;23642;42.658;23.350;2023-09-12T03:45:00;98.20;;;91.33;;
2035;SDS011;23642;42.658;23.350;2023-09-12T03:47:28;99.40;;;92.50;;
2035;SDS011;23642;42.658;23.350;2023-09-12T03:49:55;96.90;;;90.20;;
2035;SDS011;23642;42.658;23.350;2023-09-12T03:52:22;94.43;;;88.00;;
2035;SDS011;23642;42.658;23.350;2023-09-12T03:54:49;98.97;;;92.47;;
2035;SDS011;23642;42.658;23.350;2023-09-12T03:57:16;100.97;;;93.83;;
2035;SDS011;23642;42.658;23.350;2023-09-12T03:59:42;101.97;;;94.50;;
2035;SDS011;23642;42.658;23.350;2023-09-12T04:02:11;100.07;;;93.37;;
2035;SDS011;23642;42.658;23.350;2023-09-12T04:04:42;101.47;;;94.23;;
2035;SDS011;23642;42.658;23.350;2023-09-12T04:07:08;100.80;;;94.00;;
2035;SDS011;23642;42.658;23.350;2023-09-12T04:09:37;101.10;;;93.93;;
2035;SDS011;23642;42.658;23.350;2023-09-12T04:12:06;101.40;;;94.13;;
2035;SDS011;23642;42.658;23.350;2023-09-12T04:14:37;101.30;;;93.93;;
2035;SDS011;23642;42.658;23.350;2023-09-12T04:17:03;100.20;;;93.10;;
2035;SDS011;23642;42.658;23.350;2023-09-12T04:19:30;99.20;;;92.17;;
2035;SDS011;23642;42.658;23.350;2023-09-12T04:21:59;102.20;;;93.40;;
2035;SDS011;23642;42.658;23.350;2023-09-12T04:24:26;99.20;;;92.50;;
2035;SDS011;23642;42.658;23.350;2023-09-12T04:26:53;100.30;;;93.20;;
2035;SDS011;23642;42.658;23.350;2023-09-12T04:29:20;101.63;;;94.47;;
2035;SDS011;23642;42.658;23.350;2023-09-12T04:31:47;103.20;;;95.20;;
2035;SDS011;23642;42.658;23.350;2023-09-12T04:34:17;99.57;;;92.20;;
2035;SDS011;23642;42.658;23.350;2023-09-12T04:36:44;99.77;;;92.77;;
2035;SDS011;23642;42.658;23.350;2023-09-12T04:39:15;97.80;;;91.07;;
2035;SDS011;23642;42.658;23.350;2023-09-12T04:41:42;100.77;;;93.50;;
2035;SDS011;23642;42.658;23.350;2023-09-12T04:44:15;96.47;;;89.97;;
2035;SDS011;23642;42.658;23.350;2023-09-12T04:46:42;100.90;;;94.10;;
2035;SDS011;23642;42.658;23.350;2023-09-12T04:49:09;98.87;;;91.63;;
2035;SDS011;23642;42.658;23.350;2023-09-12T04:51:36;96.97;;;90.27;;
2035;SDS011;23642;42.658;23.350;2023-09-12T04:54:08;97.37;;;90.30;;
2035;SDS011;23642;42.658;23.350;2023-09-12T04:56:37;101.57;;;93.07;;
2035;SDS011;23642;42.658;23.350;2023-09-12T04:59:04;100.63;;;93.17;;
2035;SDS011;23642;42.658;23.350;2023-09-12T05:01:32;100.53;;;93.47;;
2035;SDS011;23642;42.658;23.350;2023-09-12T05:04:01;99.50;;;92.47;;
2035;SDS011;23642;42.658;23.350;2023-09-12T05:06:28;104.00;;;95.93;;
2035;SDS011;23642;42.658;23.350;2023-09-12T05:08:55;103.47;;;95.47;;
2035;SDS011;23642;42.658;23.350;2023-09-12T05:11:22;103.53;;;95.57;;
2035;SDS011;23642;42.658;23.350;2023-09-12T05:13:51;104.07;;;96.53;;
2035;SDS011;23642;42.658;23.350;2023-09-12T05:16:18;103.43;;;96.43;;
2035;SDS011;23642;42.658;23.350;2023-09-12T05:18:45;104.37;;;97.37;;
2035;SDS011;23642;42.658;23.350;2023-09-12T05:21:14;102.70;;;95.50;;
2035;SDS011;23642;42.658;23.350;2023-09-12T05:23:41;102.63;;;94.77;;
2035;SDS011;23642;42.658;23.350;2023-09-12T05:26:07;105.83;;;98.50;;
2035;SDS011;23642;42.658;23.350;2023-09-12T05:28:34;103.60;;;96.23;;
2035;SDS011;23642;42.658;23.350;2023-09-12T05:31:04;106.53;;;99.30;;
2035;SDS011;23642;42.658;23.350;2023-09-12T05:33:31;107.17;;;99.90;;
2035;SDS011;23642;42.658;23.350;2023-09-12T05:36:00;105.43;;;98.20;;
2035;SDS011;23642;42.658;23.350;2023-09-12T05:38:28;105.80;;;98.67;;
2035;SDS011;23642;42.658;23.350;2023-09-12T05:40:55;104.83;;;96.97;;
2035;SDS011;23642;42.658;23.350;2023-09-12T05:43:24;106.80;;;99.67;;
2035;SDS011;23642;42.658;23.350;2023-09-12T05:45:51;103.30;;;95.63;;
2035;SDS011;23642;42.658;23.350;2023-09-12T05:48:20;102.20;;;95.23;;
2035;SDS011;23642;42.658;23.350;2023-09-12T05:50:47;105.93;;;98.73;;
2035;SDS011;23642;42.658;23.350;2023-09-12T05:53:14;102.10;;;95.17;;
2035;SDS011;23642;42.658;23.350;2023-09-12T05:55:41;105.83;;;98.50;;
2035;SDS011;23642;42.658;23.350;2023-09-12T05:58:08;105.07;;;97.80;;
2035;SDS011;23642;42.658;23.350;2023-09-12T06:00:39;105.40;;;97.73;;
2035;SDS011;23642;42.658;23.350;2023-09-12T06:03:09;104.77;;;97.23;;
2035;SDS011;23642;42.658;23.350;2023-09-12T06:05:41;104.03;;;97.03;;
2035;SDS011;23642;42.658;23.350;2023-09-12T06:08:08;108.70;;;100.67;;
2035;SDS011;23642;42.658;23.350;2023-09-12T06:10:35;109.23;;;101.10;;
2035;SDS011;23642;42.658;23.350;2023-09-12T06:13:02;107.67;;;100.37;;
2035;SDS011;23642;42.658;23.350;2023-09-12T06:15:29;108.77;;;101.40;;
2035;SDS011;23642;42.658;23.350;2023-09-12T06:17:56;111.97;;;104.17;;
2035;SDS011;23642;42.658;23.350;2023-09-12T06:20:23;113.10;;;105.47;;
2035;SDS011;23642;42.658;23.350;2023-09-12T06:22:51;111.13;;;103.33;;
2035;SDS011;23642;42.658;23.350;2023-09-12T06:25:19;105.40;;;98.37;;
2035;SDS011;23642;42.658;23.350;2023-09-12T06:27:46;108.43;;;101.23;;
2035;SDS011;23642;42.658;23.350;2023-09-12T06:30:13;107.37;;;99.90;;
2035;SDS011;23642;42.658;23.350;2023-09-12T06:32:42;107.50;;;100.27;;
2035;SDS011;23642;42.658;23.350;2023-09-12T06:35:09;104.37;;;97.53;;
2035;SDS011;23642;42.658;23.350;2023-09-12T06:37:37;111.17;;;103.20;;
2035;SDS011;23642;42.658;23.350;2023-09-12T06:40:07;110.17;;;102.90;;
2035;SDS011;23642;42.658;23.350;2023-09-12T06:42:37;112.67;;;104.67;;
2035;SDS011;23642;42.658;23.350;2023-09-12T06:45:06;106.90;;;99.90;;
2035;SDS011;23642;42.658;23.350;2023-09-12T06:47:33;107.23;;;100.23;;
2035;SDS011;23642;42.658;23.350;2023-09-12T06:50:01;113.47;;;106.37;;
2035;SDS011;23642;42.658;23.350;2023-09-12T06:52:29;113.13;;;105.63;;
2035;SDS011;23642;42.658;23.350;2023-09-12T06:54:58;112.80;;;105.63;;
2035;SDS011;23642;42.658;23.350;2023-09-12T06:57:26;112.47;;;105.27;;
2035;SDS011;23642;42.658;23.350;2023-09-12T07:00:10;114.37;;;107.00;;
2035;SDS011;23642;42.658;23.350;2023-09-12T07:02:43;113.80;;;106.70;;
2035;SDS011;23642;42.658;23.350;2023-09-12T07:05:10;111.47;;;104.03;;
2035;SDS011;23642;42.658;23.350;2023-09-12T07:07:40;113.60;;;106.57;;
2035;SDS011;23642;42.658;23.350;2023-09-12T07:10:07;113.23;;;105.83;;
2035;SDS011;23642;42.658;23.350;2023-09-12T07:12:41;113.77;;;106.40;;
2035;SDS011;23642;42.658;23.350;2023-09-12T07:15:09;113.57;;;106.13;;
2035;SDS011;23642;42.658;23.350;2023-09-12T07:17:41;114.43;;;107.23;;
2035;SDS011;23642;42.658;23.350;2023-09-12T07:20:12;113.00;;;106.20;;
2035;SDS011;23642;42.658;23.350;2023-09-12T07:22:42;113.03;;;105.90;;
2035;SDS011;23642;42.658;23.350;2023-09-12T07:25:10;115.90;;;108.30;;
2035;SDS011;23642;42.658;23.350;2023-09-12T07:27:37;110.90;;;104.00;;
2035;SDS011;23642;42.658;23.350;2023-09-12T07:30:06;110.30;;;103.63;;
2035;SDS011;23642;42.658;23.350;2023-09-12T07:32:34;110.63;;;103.50;;
2035;SDS011;23642;42.658;23.350;2023-09-12T07:35:08;111.07;;;104.00;;
2035;SDS011;23642;42.658;23.350;2023-09-12T07:37:37;112.87;;;105.67;;
2035;SDS011;23642;42.658;23.350;2023-09-12T07:40:06;114.57;;;107.60;;
2035;SDS011;23642;42.658;23.350;2023-09-12T07:42:43;113.23;;;106.03;;
2035;SDS011;23642;42.658;23.350;2023-09-12T07:45:11;111.30;;;103.50;;
2035;SDS011;23642;42.658;23.350;2023-09-12T07:47:44;109.97;;;102.83;;
2035;SDS011;23642;42.658;23.350;2023-09-12T07:50:11;111.23;;;104.33;;
2035;SDS011;23642;42.658;23.350;2023-09-12T07:52:38;110.20;;;103.13;;
2035;SDS011;23642;42.658;23.350;2023-09-12T07:55:06;109.93;;;103.10;;
2035;SDS011;23642;42.658;23.350;2023-09-12T07:57:34;110.90;;;103.83;;
2035;SDS011;23642;42.658;23.350;2023-09-12T08:00:03;110.70;;;103.60;;
2035;SDS011;23642;42.658;23.350;2023-09-12T08:02:37;109.00;;;102.30;;
2035;SDS011;23642;42.658;23.350;2023-09-12T08:05:08;109.60;;;102.83;;
2035;SDS011;23642;42.658;23.350;2023-09-12T08:07:44;109.80;;;103.10;;
2035;SDS011;23642;42.658;23.350;2023-09-12T08:10:14;110.87;;;104.17;;
2035;SDS011;23642;42.658;23.350;2023-09-12T08:12:44;112.77;;;105.47;;
2035;SDS011;23642;42.658;23.350;2023-09-12T08:15:18;112.07;;;105.07;;
2035;SDS011;23642;42.658;23.350;2023-09-12T08:17:47;111.17;;;104.20;;
2035;SDS011;23642;42.658;23.350;2023-09-12T08:20:37;111.73;;;104.77;;
2035;SDS011;23642;42.658;23.350;2023-09-12T08:23:36;110.17;;;103.63;;
2035;SDS011;23642;42.658;23.350;2023-09-12T08:26:21;111.70;;;104.90;;
2035;SDS011;23642;42.658;23.350;2023-09-12T08:29:16;109.33;;;102.53;;
2035;SDS011;23642;42.658;23.350;2023-09-12T08:31:49;113.30;;;106.30;;
2035;SDS011;23642;42.658;23.350;2023-09-12T08:34:19;110.13;;;103.03;;
2035;SDS011;23642;42.658;23.350;2023-09-12T08:36:46;110.90;;;104.30;;
2035;SDS011;23642;42.658;23.350;2023-09-12T08:39:14;110.70;;;103.80;;
2035;SDS011;23642;42.658;23.350;2023-09-12T08:42:00;111.03;;;104.17;;
2035;SDS011;23642;42.658;23.350;2023-09-12T08:44:30;110.63;;;103.80;;
2035;SDS011;23642;42.658;23.350;2023-09-12T08:46:59;110.27;;;103.27;;
2035;SDS011;23642;42.658;23.350;2023-09-12T08:49:29;111.67;;;104.83;;
2035;SDS011;23642;42.658;23.350;2023-09-12T08:52:03;111.97;;;105.27;;
2035;SDS011;23642;42.658;23.350;2023-09-12T08:54:44;111.90;;;105.50;;
2035;SDS011;23642;42.658;23.350;2023-09-12T08:57:13;115.47;;;108.33;;
2035;SDS011;23642;42.658;23.350;2023-09-12T08:59:41;115.00;;;108.10;;
2035;SDS011;23642;42.658;23.350;2023-09-12T09:02:12;113.37;;;106.60;;
2035;SDS011;23642;42.658;23.350;2023-09-12T09:04:44;112.23;;;105.47;;
2035;SDS011;23642;42.658;23.350;2023-09-12T09:07:24;113.10;;;106.40;;
2035;SDS011;23642;42.658;23.350;2023-09-12T09:09:55;114.13;;;107.10;;
2035;SDS011;23642;42.658;23.350;2023-09-12T09:12:22;112.60;;;105.63;;
2035;SDS011;23642;42.658;23.350;2023-09-12T09:14:49;108.97;;;102.37;;
2035;SDS011;23642;42.658;23.350;2023-09-12T09:17:19;113.67;;;106.27;;
2035;SDS011;23642;42.658;23.350;2023-09-12T09:19:53;110.63;;;103.93;;
2035;SDS011;23642;42.658;23.350;2023-09-12T09:22:37;113.50;;;106.37;;
2035;SDS011;23642;42.658;23.350;2023-09-12T09:25:10;110.90;;;104.20;;
2035;SDS011;23642;42.658;23.350;2023-09-12T09:27:38;111.53;;;104.63;;
2035;SDS011;23642;42.658;23.350;2023-09-12T09:32:50;110.03;;;102.67;;
2035;SDS011;23642;42.658;23.350;2023-09-12T09:35:23;109.53;;;102.83;;
2035;SDS011;23642;42.658;23.350;2023-09-12T09:37:50;108.67;;;101.83;;
2035;SDS011;23642;42.658;23.350;2023-09-12T09:40:19;101.22;;;94.93;;
2035;SDS011;23642;42.658;23.350;2023-09-12T09:42:52;108.43;;;101.33;;
2035;SDS011;23642;42.658;23.350;2023-09-12T09:45:19;108.43;;;101.90;;
2035;SDS011;23642;42.658;23.350;2023-09-12T09:47:49;106.70;;;100.00;;
2035;SDS011;23642;42.658;23.350;2023-09-12T09:50:17;107.20;;;100.50;;
2035;SDS011;23642;42.658;23.350;2023-09-12T09:52:46;105.67;;;98.60;;
2035;SDS011;23642;42.658;23.350;2023-09-12T09:55:20;107.63;;;101.00;;
2035;SDS011;23642;42.658;23.350;2023-09-12T09:57:49;109.63;;;102.80;;
2035;SDS011;23642;42.658;23.350;2023-09-12T10:00:23;109.13;;;102.53;;
2035;SDS011;23642;42.658;23.350;2023-09-12T10:02:52;110.07;;;103.57;;
2035;SDS011;23642;42.658;23.350;2023-09-12T10:05:22;104.53;;;98.13;;
2035;SDS011;23642;42.658;23.350;2023-09-12T10:07:50;108.93;;;102.23;;
2035;SDS011;23642;42.658;23.350;2023-09-12T10:10:27;110.23;;;102.90;;
2035;SDS011;23642;42.658;23.350;2023-09-12T10:13:04;107.60;;;100.90;;
2035;SDS011;23642;42.658;23.350;2023-09-12T10:15:33;108.30;;;101.40;;
2035;SDS011;23642;42.658;23.350;2023-09-12T10:18:05;111.07;;;103.60;;
2035;SDS011;23642;42.658;23.350;2023-09-12T10:20:47;108.23;;;101.40;;
2035;SDS011;23642;42.658;23.350;2023-09-12T10:23:23;107.40;;;100.70;;
2035;SDS011;23642;42.658;23.350;2023-09-12T10:26:13;110.10;;;103.30;;
2035;SDS011;23642;42.658;23.350;2023-09-12T10:29:03;108.47;;;101.90;;
2035;SDS011;23642;42.658;23.350;2023-09-12T10:31:30;109.03;;;102.53;;
2035;SDS011;23642;42.658;23.350;2023-09-12T10:34:00;109.17;;;102.67;;
2035;SDS011;23642;42.658;23.350;2023-09-12T10:36:35;109.57;;;103.07;;
2035;SDS011;23642;42.658;23.350;2023-09-12T10:39:10;113.50;;;106.60;;
2035;SDS011;23642;42.658;23.350;2023-09-12T10:41:39;110.00;;;103.33;;
2035;SDS011;23642;42.658;23.350;2023-09-12T10:44:15;111.67;;;104.53;;
2035;SDS011;23642;42.658;23.350;2023-09-12T10:46:59;106.90;;;100.53;;
2035;SDS011;23642;42.658;23.350;2023-09-12T10:49:42;108.73;;;102.03;;
2035;SDS011;23642;42.658;23.350;2023-09-12T10:52:37;107.67;;;101.27;;
2035;SDS011;23642;42.658;23.350;2023-09-12T10:55:20;107.87;;;101.43;;
2035;SDS011;23642;42.658;23.350;2023-09-12T10:58:06;109.73;;;102.73;;
2035;SDS011;23642;42.658;23.350;2023-09-12T11:00:54;109.73;;;102.93;;
2035;SDS011;23642;42.658;23.350;2023-09-12T11:03:49;111.20;;;104.50;;
2035;SDS011;23642;42.658;23.350;2023-09-12T11:06:23;111.10;;;104.40;;
2035;SDS011;23642;42.658;23.350;2023-09-12T11:09:29;108.73;;;101.87;;
2035;SDS011;23642;42.658;23.350;2023-09-12T11:15:13;110.93;;;103.80;;
2035;SDS011;23642;42.658;23.350;2023-09-12T11:17:42;112.67;;;104.57;;
2035;SDS011;23642;42.658;23.350;2023-09-12T11:20:10;111.73;;;104.30;;
2035;SDS011;23642;42.658;23.350;2023-09-12T11:23:40;108.30;;;101.97;;
2035;SDS011;23642;42.658;23.350;2023-09-12T11:25:43;112.70;;;105.90;;
2035;SDS011;23642;42.658;23.350;2023-09-12T11:28:20;113.53;;;106.77;;
2035;SDS011;23642;42.658;23.350;2023-09-12T11:30:57;111.20;;;104.07;;
2035;SDS011;23642;42.658;23.350;2023-09-12T11:33:27;111.90;;;105.10;;
2035;SDS011;23642;42.658;23.350;2023-09-12T11:35:54;111.17;;;104.57;;
2035;SDS011;23642;42.658;23.350;2023-09-12T11:38:26;109.83;;;102.73;;
2035;SDS011;23642;42.658;23.350;2023-09-12T11:41:00;108.60;;;102.20;;
2035;SDS011;23642;42.658;23.350;2023-09-12T11:43:31;114.20;;;107.10;;
2035;SDS011;23642;42.658;23.350;2023-09-12T11:46:01;111.53;;;104.77;;
2035;SDS011;23642;42.658;23.350;2023-09-12T11:48:28;112.80;;;106.07;;
2035;SDS011;23642;42.658;23.350;2023-09-12T11:51:02;108.77;;;102.07;;
2035;SDS011;23642;42.658;23.350;2023-09-12T11:53:33;112.77;;;105.90;;
2035;SDS011;23642;42.658;23.350;2023-09-12T11:56:03;111.53;;;104.73;;
2035;SDS011;23642;42.658;23.350;2023-09-12T11:58:47;112.10;;;105.30;;
2035;SDS011;23642;42.658;23.350;2023-09-12T12:01:29;111.23;;;104.63;;
2035;SDS011;23642;42.658;23.350;2023-09-12T12:04:13;111.50;;;104.87;;
2035;SDS011;23642;42.658;23.350;2023-09-12T12:06:57;110.43;;;103.70;;
2035;SDS011;23642;42.658;23.350;2023-09-12T12:09:24;110.50;;;104.10;;
2035;SDS011;23642;42.658;23.350;2023-09-12T12:12:18;109.60;;;102.63;;
2035;SDS011;23642;42.658;23.350;2023-09-12T12:18:52;115.37;;;108.30;;
2035;SDS011;23642;42.658;23.350;2023-09-12T12:21:44;114.40;;;107.53;;
2035;SDS011;23642;42.658;23.350;2023-09-12T12:24:19;113.93;;;107.10;;
2035;SDS011;23642;42.658;23.350;2023-09-12T12:27:04;111.17;;;104.57;;
2035;SDS011;23642;42.658;23.350;2023-09-12T12:33:35;111.57;;;104.97;;
2035;SDS011;23642;42.658;23.350;2023-09-12T12:39:49;109.57;;;103.07;;
2035;SDS011;23642;42.658;23.350;2023-09-12T12:45:36;112.73;;;106.03;;
2035;SDS011;23642;42.658;23.350;2023-09-12T12:51:27;112.47;;;105.80;;
2035;SDS011;23642;42.658;23.350;2023-09-12T12:54:14;112.37;;;105.40;;
2035;SDS011;23642;42.658;23.350;2023-09-12T12:56:55;114.13;;;107.27;;
2035;SDS011;23642;42.658;23.350;2023-09-12T13:03:09;111.53;;;104.93;;
2035;SDS011;23642;42.658;23.350;2023-09-12T13:05:57;111.10;;;104.50;;
2035;SDS011;23642;42.658;23.350;2023-09-12T13:08:47;108.73;;;101.80;;
2035;SDS011;23642;42.658;23.350;2023-09-12T13:11:17;113.07;;;106.37;;
2035;SDS011;23642;42.658;23.350;2023-09-12T13:13:48;113.20;;;106.13;;
2035;SDS011;23642;42.658;23.350;2023-09-12T13:16:48;112.07;;;104.70;;
2035;SDS011;23642;42.658;23.350;2023-09-12T13:19:17;111.47;;;104.97;;
2035;SDS011;23642;42.658;23.350;2023-09-12T13:21:50;112.30;;;105.50;;
2035;SDS011;23642;42.658;23.350;2023-09-12T13:27:04;111.87;;;105.17;;
2035;SDS011;23642;42.658;23.350;2023-09-12T13:29:36;111.93;;;105.03;;
2035;SDS011;23642;42.658;23.350;2023-09-12T13:32:05;112.00;;;105.10;;
2035;SDS011;23642;42.658;23.350;2023-09-12T13:34:57;112.17;;;104.97;;
2035;SDS011;23642;42.658;23.350;2023-09-12T13:37:42;108.90;;;101.80;;
2035;SDS011;23642;42.658;23.350;2023-09-12T13:40:29;114.67;;;107.23;;
2035;SDS011;23642;42.658;23.350;2023-09-12T13:45:38;111.03;;;104.33;;
2035;SDS011;23642;42.658;23.350;2023-09-12T13:48:46;111.93;;;105.23;;
2035;SDS011;23642;42.658;23.350;2023-09-12T13:51:38;115.07;;;108.40;;
2035;SDS011;23642;42.658;23.350;2023-09-12T13:54:19;112.83;;;106.13;;
2035;SDS011;23642;42.658;23.350;2023-09-12T13:56:46;114.97;;;107.23;;
2035;SDS011;23642;42.658;23.350;2023-09-12T14:02:38;118.50;;;111.30;;
2035;SDS011;23642;42.658;23.350;2023-09-12T14:06:12;114.03;;;107.10;;
2035;SDS011;23642;42.658;23.350;2023-09-12T14:07:57;118.50;;;111.20;;
2035;SDS011;23642;42.658;23.350;2023-09-12T14:10:24;112.10;;;105.40;;
2035;SDS011;23642;42.658;23.350;2023-09-12T14:12:54;115.67;;;108.60;;
2035;SDS011;23642;42.658;23.350;2023-09-12T14:15:25;119.50;;;112.60;;
2035;SDS011;23642;42.658;23.350;2023-09-12T14:17:56;116.80;;;109.87;;
2035;SDS011;23642;42.658;23.350;2023-09-12T14:20:39;121.87;;;114.43;;
2035;SDS011;23642;42.658;23.350;2023-09-12T14:23:07;112.07;;;105.40;;
2035;SDS011;23642;42.658;23.350;2023-09-12T14:25:39;107.90;;;101.30;;
2035;SDS011;23642;42.658;23.350;2023-09-12T14:28:14;108.40;;;101.70;;
2035;SDS011;23642;42.658;23.350;2023-09-12T14:30:41;109.20;;;102.50;;
2035;SDS011;23642;42.658;23.350;2023-09-12T14:33:11;111.67;;;104.27;;
2035;SDS011;23642;42.658;23.350;2023-09-12T14:35:40;106.53;;;100.13;;
2035;SDS011;23642;42.658;23.350;2023-09-12T14:38:07;107.40;;;100.57;;
2035;SDS011;23642;42.658;23.350;2023-09-12T14:40:40;105.50;;;99.07;;
2035;SDS011;23642;42.658;23.350;2023-09-12T14:43:12;106.83;;;99.93;;
2035;SDS011;23642;42.658;23.350;2023-09-12T14:45:39;105.87;;;99.40;;
2035;SDS011;23642;42.658;23.350;2023-09-12T14:48:06;106.90;;;100.40;;
2035;SDS011;23642;42.658;23.350;2023-09-12T14:50:34;108.57;;;101.83;;
2035;SDS011;23642;42.658;23.350;2023-09-12T14:53:01;108.00;;;101.50;;
2035;SDS011;23642;42.658;23.350;2023-09-12T14:55:29;108.27;;;101.63;;
2035;SDS011;23642;42.658;23.350;2023-09-12T14:57:56;99.97;;;93.90;;
2035;SDS011;23642;42.658;23.350;2023-09-12T15:00:25;100.77;;;93.90;;
2035;SDS011;23642;42.658;23.350;2023-09-12T15:02:55;101.63;;;95.10;;